Time;durP1;ratioP1;P1;durP2;ratioP2;P2;SDS_P1;SDS_P2;PMS_P1;PMS_P2;Temp;Humidity;BMP_temperature;BMP_pressure;BME280_temperature;BME280_humidity;BME280_pressure;Samples;Min_cycle;Max_cycle;Signal;HPM_P1;HPM_P2
2020/12/22 00:00:21;;;;;;;2.43;2.23;;;;;;;;;;5053524;28;20401;-51
2020/12/22 00:02:48;;;;;;;2.30;2.20;;;;;;;;;;5052826;28;20479;-52
2020/12/22 00:05:14;;;;;;;2.67;2.47;;;;;;;;;;5053213;28;20429;-53
2020/12/22 00:07:41;;;;;;;3.20;2.90;;;;;;;;;;5052169;28;20405;-52
2020/12/22 00:10:07;;;;;;;2.10;2.00;;;;;;;;;;5052753;28;20467;-52
2020/12/22 00:12:33;;;;;;;2.33;2.23;;;;;;;;;;5052482;28;20773;-52
2020/12/22 00:15:00;;;;;;;2.43;2.33;;;;;;;;;;5049355;28;20874;-52
2020/12/22 00:17:26;;;;;;;2.10;2.00;;;;;;;;;;5053164;28;20409;-52
2020/12/22 00:19:52;;;;;;;2.00;1.90;;;;;;;;;;5052869;28;20403;-52
2020/12/22 00:22:18;;;;;;;2.00;1.90;;;;;;;;;;5052640;28;20905;-52
2020/12/22 00:24:44;;;;;;;2.50;2.00;;;;;;;;;;5052722;28;20437;-52
2020/12/22 00:27:10;;;;;;;2.53;2.33;;;;;;;;;;5052790;28;20406;-52
2020/12/22 00:29:36;;;;;;;1.60;1.50;;;;;;;;;;5052666;28;20401;-52
2020/12/22 00:32:02;;;;;;;2.00;1.90;;;;;;;;;;5052511;28;20425;-53
2020/12/22 00:34:29;;;;;;;1.40;1.30;;;;;;;;;;5052576;28;20403;-51
2020/12/22 00:36:55;;;;;;;2.03;1.93;;;;;;;;;;5052674;28;20444;-52
2020/12/22 00:39:21;;;;;;;1.37;1.30;;;;;;;;;;5049420;28;20432;-51
2020/12/22 00:41:51;;;;;;;2.20;2.10;;;;;;;;;;5052270;28;20419;-53
2020/12/22 00:44:17;;;;;;;1.60;1.50;;;;;;;;;;5052796;28;20407;-52
2020/12/22 00:46:43;;;;;;;1.60;1.50;;;;;;;;;;5052434;28;20402;-52
2020/12/22 00:49:09;;;;;;;2.00;1.90;;;;;;;;;;5052531;28;20448;-52
2020/12/22 00:51:35;;;;;;;1.60;1.50;;;;;;;;;;5052261;28;20427;-52
2020/12/22 00:54:01;;;;;;;1.30;1.30;;;;;;;;;;5052609;28;20446;-52
2020/12/22 00:56:27;;;;;;;1.67;1.47;;;;;;;;;;5052155;28;20453;-52
2020/12/22 00:58:53;;;;;;;1.50;1.40;;;;;;;;;;5052333;28;20398;-52
2020/12/22 01:01:19;;;;;;;1.20;1.10;;;;;;;;;;5051789;28;20432;-52
2020/12/22 01:03:46;;;;;;;1.53;1.43;;;;;;;;;;5052221;28;20930;-52
2020/12/22 01:06:12;;;;;;;1.83;1.50;;;;;;;;;;5052188;28;20411;-53
2020/12/22 01:08:38;;;;;;;1.33;1.27;;;;;;;;;;5049975;28;20419;-52
2020/12/22 01:11:04;;;;;;;1.63;1.53;;;;;;;;;;5050298;28;20424;-51
2020/12/22 01:13:31;;;;;;;1.83;1.73;;;;;;;;;;5052041;28;20500;-52
2020/12/22 01:15:57;;;;;;;1.83;1.73;;;;;;;;;;5051907;28;20460;-53
2020/12/22 01:18:23;;;;;;;1.77;1.67;;;;;;;;;;5051806;28;20425;-52
2020/12/22 01:20:49;;;;;;;1.90;1.80;;;;;;;;;;5051832;28;20765;-53
2020/12/22 01:23:15;;;;;;;2.13;1.90;;;;;;;;;;5050391;28;20415;-52
2020/12/22 01:25:41;;;;;;;3.13;2.27;;;;;;;;;;5051673;28;20415;-53
2020/12/22 01:28:08;;;;;;;2.80;2.30;;;;;;;;;;5051499;28;20440;-52
2020/12/22 01:30:36;;;;;;;2.47;2.37;;;;;;;;;;5051614;28;20470;-51
2020/12/22 01:33:02;;;;;;;2.20;2.10;;;;;;;;;;5051158;28;20974;-54
2020/12/22 01:35:28;;;;;;;2.87;2.20;;;;;;;;;;5051434;28;20933;-52
2020/12/22 01:37:54;;;;;;;2.60;2.17;;;;;;;;;;5051288;28;20432;-52
2020/12/22 01:40:20;;;;;;;2.07;1.97;;;;;;;;;;5048271;28;20436;-52
2020/12/22 01:42:46;;;;;;;1.70;1.60;;;;;;;;;;5047487;28;21138;-52
2020/12/22 01:45:13;;;;;;;2.00;1.90;;;;;;;;;;5051502;28;20407;-52
2020/12/22 01:47:48;;;;;;;2.43;2.20;;;;;;;;;;5051226;28;20412;-52
2020/12/22 01:50:15;;;;;;;2.40;2.20;;;;;;;;;;5051303;28;20397;-52
2020/12/22 01:52:42;;;;;;;2.67;2.47;;;;;;;;;;5050849;28;20455;-52
2020/12/22 01:55:08;;;;;;;6.00;2.40;;;;;;;;;;5051191;28;20927;-52
2020/12/22 01:57:34;;;;;;;2.57;2.37;;;;;;;;;;5051160;28;20491;-53
2020/12/22 02:00:00;;;;;;;2.70;2.53;;;;;;;;;;5050954;28;20401;-52
2020/12/22 02:02:26;;;;;;;2.47;2.27;;;;;;;;;;5050191;28;20419;-52
2020/12/22 02:04:52;;;;;;;3.20;2.27;;;;;;;;;;5050066;28;20482;-52
2020/12/22 02:07:19;;;;;;;3.40;2.90;;;;;;;;;;5050934;28;20492;-52
2020/12/22 02:09:46;;;;;;;2.87;2.63;;;;;;;;;;5047802;28;20469;-53
2020/12/22 02:12:12;;;;;;;2.90;2.70;;;;;;;;;;5050613;28;20480;-52
2020/12/22 02:14:38;;;;;;;3.73;3.30;;;;;;;;;;5050786;28;20457;-53
2020/12/22 02:17:04;;;;;;;4.00;3.70;;;;;;;;;;5050907;28;20905;-53
2020/12/22 02:19:30;;;;;;;3.67;3.47;;;;;;;;;;5050639;28;20410;-52
2020/12/22 02:21:56;;;;;;;3.60;3.40;;;;;;;;;;5050495;28;20430;-52
2020/12/22 02:24:22;;;;;;;3.27;3.07;;;;;;;;;;5050653;28;20844;-52
2020/12/22 02:26:48;;;;;;;3.20;3.00;;;;;;;;;;5050722;28;20414;-52
2020/12/22 02:29:14;;;;;;;3.63;3.43;;;;;;;;;;5050735;28;21113;-52
2020/12/22 02:31:40;;;;;;;3.70;3.50;;;;;;;;;;5050269;28;20432;-52
2020/12/22 02:34:06;;;;;;;3.97;3.67;;;;;;;;;;5050476;28;20401;-51
2020/12/22 02:36:33;;;;;;;3.60;3.40;;;;;;;;;;5050399;28;20490;-52
2020/12/22 02:38:59;;;;;;;4.23;3.83;;;;;;;;;;5050660;28;20554;-52
2020/12/22 02:41:25;;;;;;;6.80;4.00;;;;;;;;;;5045263;28;20536;-52
2020/12/22 02:43:51;;;;;;;3.93;3.73;;;;;;;;;;5050622;28;20400;-52
2020/12/22 02:46:17;;;;;;;4.57;4.20;;;;;;;;;;5050461;28;20405;-52
2020/12/22 02:48:43;;;;;;;3.60;3.40;;;;;;;;;;5050501;28;20492;-53
2020/12/22 02:51:09;;;;;;;3.57;3.27;;;;;;;;;;5050101;28;20408;-53
2020/12/22 02:53:35;;;;;;;2.77;2.67;;;;;;;;;;5050546;28;20425;-52
2020/12/22 02:56:01;;;;;;;2.87;2.77;;;;;;;;;;5050249;28;20963;-52
2020/12/22 02:58:27;;;;;;;3.00;2.80;;;;;;;;;;5050506;28;20483;-52
2020/12/22 03:00:53;;;;;;;2.83;2.73;;;;;;;;;;5050515;28;20400;-52
2020/12/22 03:03:19;;;;;;;2.60;2.50;;;;;;;;;;5049969;28;20502;-53
2020/12/22 03:05:45;;;;;;;2.37;2.10;;;;;;;;;;5050433;28;20451;-52
2020/12/22 03:08:11;;;;;;;2.60;2.50;;;;;;;;;;5050497;28;20408;-53
2020/12/22 03:10:37;;;;;;;2.83;2.60;;;;;;;;;;5048946;28;20432;-52
2020/12/22 03:13:03;;;;;;;2.67;2.47;;;;;;;;;;5050201;28;20439;-52
2020/12/22 03:15:29;;;;;;;2.70;2.50;;;;;;;;;;5050570;28;20449;-52
2020/12/22 03:17:55;;;;;;;2.17;1.97;;;;;;;;;;5050395;28;20404;-53
2020/12/22 03:20:24;;;;;;;2.00;1.90;;;;;;;;;;5051331;28;20411;-52
2020/12/22 03:22:50;;;;;;;2.20;1.90;;;;;;;;;;5050152;28;20515;-52
2020/12/22 03:25:16;;;;;;;1.53;1.53;;;;;;;;;;5050518;28;21177;-52
2020/12/22 03:27:42;;;;;;;1.87;1.53;;;;;;;;;;5050165;28;20432;-52
2020/12/22 03:30:09;;;;;;;1.97;1.60;;;;;;;;;;5050222;28;20495;-52
2020/12/22 03:32:35;;;;;;;1.73;1.40;;;;;;;;;;5049692;28;20491;-52
2020/12/22 03:35:01;;;;;;;1.60;1.50;;;;;;;;;;5050031;28;20867;-52
2020/12/22 03:37:27;;;;;;;4.03;1.70;;;;;;;;;;5050048;28;20434;-52
2020/12/22 03:39:55;;;;;;;1.57;1.47;;;;;;;;;;5046821;28;20437;-53
2020/12/22 03:42:21;;;;;;;2.43;1.70;;;;;;;;;;5049784;28;20459;-53
2020/12/22 03:44:48;;;;;;;1.43;1.30;;;;;;;;;;5049941;28;20408;-53
2020/12/22 03:47:14;;;;;;;1.90;1.70;;;;;;;;;;5052884;28;20415;-52
2020/12/22 03:49:40;;;;;;;2.97;1.50;;;;;;;;;;5053623;28;20408;-53
2020/12/22 03:52:07;;;;;;;1.50;1.30;;;;;;;;;;5053305;28;20424;-52
2020/12/22 03:54:33;;;;;;;1.30;1.20;;;;;;;;;;5053379;28;20459;-52
2020/12/22 04:00:04;;;;;;;2.73;1.67;;;;;;;;;;5052733;28;20387;-52
2020/12/22 04:02:30;;;;;;;1.57;1.33;;;;;;;;;;5052993;28;20495;-52
2020/12/22 04:04:56;;;;;;;1.50;1.40;;;;;;;;;;5053111;28;20992;-52
2020/12/22 04:07:22;;;;;;;2.17;1.50;;;;;;;;;;5053230;28;20778;-52
2020/12/22 04:09:48;;;;;;;1.40;1.30;;;;;;;;;;5051376;28;20778;-52
2020/12/22 04:12:14;;;;;;;1.30;1.20;;;;;;;;;;5052834;28;20421;-53
2020/12/22 04:14:40;;;;;;;1.90;1.20;;;;;;;;;;5052861;28;20983;-52
2020/12/22 04:17:06;;;;;;;3.13;1.33;;;;;;;;;;5053000;28;20481;-52
2020/12/22 04:19:32;;;;;;;3.07;2.77;;;;;;;;;;5051959;28;20920;-52
2020/12/22 04:21:58;;;;;;;1.33;1.23;;;;;;;;;;5052538;28;20856;-52
2020/12/22 04:24:24;;;;;;;1.20;1.10;;;;;;;;;;5052883;28;20433;-52
2020/12/22 04:26:50;;;;;;;1.53;1.17;;;;;;;;;;5052753;28;20407;-52
2020/12/22 04:29:16;;;;;;;1.30;1.20;;;;;;;;;;5052863;28;20487;-52
2020/12/22 04:31:42;;;;;;;0.90;0.90;;;;;;;;;;5052311;28;20432;-52
2020/12/22 04:34:08;;;;;;;2.90;0.97;;;;;;;;;;5051684;28;20829;-52
2020/12/22 04:36:34;;;;;;;3.37;1.40;;;;;;;;;;5050498;28;20464;-53
2020/12/22 04:39:00;;;;;;;1.63;1.20;;;;;;;;;;5052624;28;20396;-52
2020/12/22 04:41:26;;;;;;;1.00;1.00;;;;;;;;;;5052161;28;20792;-53
2020/12/22 04:43:52;;;;;;;1.47;0.90;;;;;;;;;;5052571;28;20408;-53
2020/12/22 04:46:20;;;;;;;3.27;1.00;;;;;;;;;;5052285;28;20409;-52
2020/12/22 04:48:50;;;;;;;1.23;1.00;;;;;;;;;;5052621;28;20409;-53
2020/12/22 04:51:17;;;;;;;1.10;1.00;;;;;;;;;;5051985;28;20830;-53
2020/12/22 04:53:44;;;;;;;4.90;1.30;;;;;;;;;;5052313;28;20496;-52
2020/12/22 04:56:10;;;;;;;1.53;0.87;;;;;;;;;;5052320;28;20464;-52
2020/12/22 04:58:36;;;;;;;1.37;1.10;;;;;;;;;;5052122;28;20424;-53
2020/12/22 05:01:03;;;;;;;3.70;1.53;;;;;;;;;;5048919;28;20413;-52
2020/12/22 05:03:29;;;;;;;2.80;1.00;;;;;;;;;;5050872;28;20962;-52
2020/12/22 05:05:55;;;;;;;1.00;1.00;;;;;;;;;;5052028;28;20459;-53
2020/12/22 05:08:21;;;;;;;1.00;1.00;;;;;;;;;;5052014;28;20402;-53
2020/12/22 05:10:47;;;;;;;5.43;1.17;;;;;;;;;;5052140;28;20413;-53
2020/12/22 05:13:14;;;;;;;2.03;1.10;;;;;;;;;;5051699;28;20428;-53
2020/12/22 05:15:41;;;;;;;2.10;1.00;;;;;;;;;;5052098;28;20449;-52
2020/12/22 05:18:07;;;;;;;1.00;1.00;;;;;;;;;;5052179;28;20416;-53
2020/12/22 05:20:33;;;;;;;1.00;1.00;;;;;;;;;;5052240;28;20402;-53
2020/12/22 05:22:59;;;;;;;1.10;1.00;;;;;;;;;;5051660;28;20555;-53
2020/12/22 05:25:27;;;;;;;1.17;0.90;;;;;;;;;;5048836;28;20899;-52
2020/12/22 05:27:56;;;;;;;1.10;1.10;;;;;;;;;;5052113;28;20557;-53
2020/12/22 05:30:22;;;;;;;0.90;0.90;;;;;;;;;;5051839;28;20409;-53
2020/12/22 05:32:52;;;;;;;0.97;0.97;;;;;;;;;;5051596;28;20938;-53
2020/12/22 05:35:21;;;;;;;1.20;1.10;;;;;;;;;;5051545;28;21081;-52
2020/12/22 05:37:47;;;;;;;1.00;1.00;;;;;;;;;;5051621;28;20408;-52
2020/12/22 05:40:16;;;;;;;1.77;1.17;;;;;;;;;;5051521;28;20435;-52
2020/12/22 05:42:42;;;;;;;0.90;0.90;;;;;;;;;;5051127;28;20416;-52
2020/12/22 05:45:09;;;;;;;0.97;0.97;;;;;;;;;;5051326;28;20908;-52
2020/12/22 05:47:35;;;;;;;0.97;0.97;;;;;;;;;;5051614;28;20402;-52
2020/12/22 05:50:01;;;;;;;1.33;1.00;;;;;;;;;;5048540;28;20401;-52
2020/12/22 05:52:28;;;;;;;1.07;1.07;;;;;;;;;;5050361;28;20468;-52
2020/12/22 05:54:55;;;;;;;1.10;1.10;;;;;;;;;;5050987;28;20445;-52
2020/12/22 05:57:21;;;;;;;1.23;1.00;;;;;;;;;;5051256;28;20397;-52
2020/12/22 05:59:48;;;;;;;1.30;1.10;;;;;;;;;;5051057;28;20475;-52
2020/12/22 06:02:23;;;;;;;1.20;1.10;;;;;;;;;;5050792;28;20420;-52
2020/12/22 06:04:49;;;;;;;1.27;1.07;;;;;;;;;;5050918;28;20436;-52
2020/12/22 06:07:15;;;;;;;1.03;1.03;;;;;;;;;;5051030;28;20405;-51
2020/12/22 06:09:41;;;;;;;1.00;1.00;;;;;;;;;;5050548;28;20428;-51
2020/12/22 06:12:08;;;;;;;3.70;1.40;;;;;;;;;;5050495;28;20429;-52
2020/12/22 06:14:34;;;;;;;2.10;1.27;;;;;;;;;;5051056;28;20489;-53
2020/12/22 06:17:07;;;;;;;2.10;1.40;;;;;;;;;;5046830;28;20436;-52
2020/12/22 06:19:38;;;;;;;1.37;1.27;;;;;;;;;;5050895;28;20788;-52
2020/12/22 06:22:05;;;;;;;1.27;1.20;;;;;;;;;;5050306;28;20413;-52
2020/12/22 06:24:34;;;;;;;3.83;1.30;;;;;;;;;;5050791;28;20409;-52
2020/12/22 06:27:01;;;;;;;1.20;1.10;;;;;;;;;;5050660;28;20401;-52
2020/12/22 06:29:28;;;;;;;2.93;1.57;;;;;;;;;;5050750;28;20455;-52
2020/12/22 06:31:54;;;;;;;2.00;1.23;;;;;;;;;;5050292;28;20528;-52
2020/12/22 06:34:24;;;;;;;2.00;1.10;;;;;;;;;;5050670;28;20908;-52
2020/12/22 06:36:56;;;;;;;1.33;1.23;;;;;;;;;;5050422;28;20444;-52
2020/12/22 06:39:39;;;;;;;1.23;1.13;;;;;;;;;;5050852;28;20559;-52
2020/12/22 06:42:05;;;;;;;2.27;1.43;;;;;;;;;;5046450;28;20440;-51
2020/12/22 06:44:31;;;;;;;1.97;1.40;;;;;;;;;;5050552;28;20409;-52
2020/12/22 06:46:58;;;;;;;2.40;1.47;;;;;;;;;;5050418;28;20425;-52
2020/12/22 06:49:43;;;;;;;1.63;1.53;;;;;;;;;;5050411;28;20409;-52
2020/12/22 06:52:27;;;;;;;1.60;1.50;;;;;;;;;;5050091;28;20825;-52
2020/12/22 06:54:53;;;;;;;1.30;1.20;;;;;;;;;;5049648;28;20448;-53
2020/12/22 06:57:38;;;;;;;1.40;1.30;;;;;;;;;;5049733;28;20402;-52
2020/12/22 07:00:04;;;;;;;1.33;1.23;;;;;;;;;;5049923;28;20393;-52
2020/12/22 07:02:30;;;;;;;2.00;1.60;;;;;;;;;;5049290;28;20513;-52
2020/12/22 07:04:57;;;;;;;2.60;1.50;;;;;;;;;;5049732;28;20504;-52
2020/12/22 07:07:23;;;;;;;1.60;1.50;;;;;;;;;;5044582;28;20432;-53
2020/12/22 07:09:49;;;;;;;1.53;1.43;;;;;;;;;;5049764;28;20985;-52
2020/12/22 07:12:19;;;;;;;1.97;1.87;;;;;;;;;;5049364;28;21261;-52
2020/12/22 07:14:46;;;;;;;1.70;1.60;;;;;;;;;;5048453;28;20442;-52
2020/12/22 07:17:16;;;;;;;1.60;1.50;;;;;;;;;;5049854;28;20428;-52
2020/12/22 07:19:49;;;;;;;1.93;1.57;;;;;;;;;;5049447;28;20393;-52
2020/12/22 07:22:18;;;;;;;1.53;1.43;;;;;;;;;;5052547;28;20462;-52
2020/12/22 07:24:45;;;;;;;1.90;1.77;;;;;;;;;;5053067;28;20888;-52
2020/12/22 07:27:11;;;;;;;1.23;1.23;;;;;;;;;;5053507;28;20393;-52
2020/12/22 07:29:38;;;;;;;1.90;1.80;;;;;;;;;;5051853;28;20405;-52
2020/12/22 07:32:04;;;;;;;4.60;1.70;;;;;;;;;;5042138;28;20503;-52
2020/12/22 07:34:31;;;;;;;1.80;1.60;;;;;;;;;;5035511;28;20459;-52
2020/12/22 07:37:04;;;;;;;2.00;1.80;;;;;;;;;;5053173;28;20397;-52
2020/12/22 07:39:32;;;;;;;1.70;1.60;;;;;;;;;;5052962;28;20483;-52
2020/12/22 07:42:07;;;;;;;1.60;1.50;;;;;;;;;;5052655;28;20456;-52
2020/12/22 07:44:33;;;;;;;1.83;1.67;;;;;;;;;;5044650;28;20415;-52
2020/12/22 07:47:01;;;;;;;1.43;1.33;;;;;;;;;;5032744;28;20376;-52
2020/12/22 07:49:27;;;;;;;5.67;1.50;;;;;;;;;;5033782;28;20439;-53
2020/12/22 07:51:53;;;;;;;6.60;1.50;;;;;;;;;;5033487;28;20568;-52
2020/12/22 07:54:19;;;;;;;2.30;1.30;;;;;;;;;;5033158;28;20906;-52
2020/12/22 07:56:45;;;;;;;1.60;1.40;;;;;;;;;;5033748;28;20463;-51
2020/12/22 07:59:15;;;;;;;1.27;1.27;;;;;;;;;;5052294;28;20405;-52
2020/12/22 08:01:41;;;;;;;1.80;1.70;;;;;;;;;;5052386;28;20407;-52
2020/12/22 08:04:10;;;;;;;1.40;1.30;;;;;;;;;;5053123;28;20413;-51
2020/12/22 08:06:36;;;;;;;1.50;1.40;;;;;;;;;;5053593;28;21066;-53
2020/12/22 08:09:02;;;;;;;2.40;1.67;;;;;;;;;;5053256;28;20440;-52
2020/12/22 08:11:28;;;;;;;1.10;1.10;;;;;;;;;;5053089;28;20815;-53
2020/12/22 08:13:55;;;;;;;3.80;1.80;;;;;;;;;;5053201;28;20423;-52
2020/12/22 08:16:21;;;;;;;2.23;1.43;;;;;;;;;;5053102;28;20431;-52
2020/12/22 08:18:48;;;;;;;3.93;1.20;;;;;;;;;;5052810;28;20543;-51
2020/12/22 08:21:16;;;;;;;5.30;1.47;;;;;;;;;;5052935;28;20379;-52
2020/12/22 08:23:42;;;;;;;1.47;1.37;;;;;;;;;;5049837;28;20424;-52
2020/12/22 08:26:09;;;;;;;2.73;1.20;;;;;;;;;;5052910;28;20401;-51
2020/12/22 08:28:35;;;;;;;1.23;1.23;;;;;;;;;;5052734;28;20896;-53
2020/12/22 08:31:13;;;;;;;2.83;1.33;;;;;;;;;;5052831;28;20470;-51
2020/12/22 08:33:42;;;;;;;1.40;1.30;;;;;;;;;;5052848;28;20424;-53
2020/12/22 08:36:11;;;;;;;1.50;1.30;;;;;;;;;;5052613;28;20446;-51
2020/12/22 08:38:37;;;;;;;1.50;1.30;;;;;;;;;;5052655;28;20412;-52
2020/12/22 08:41:32;;;;;;;1.13;1.10;;;;;;;;;;5052419;28;20397;-50
2020/12/22 08:44:04;;;;;;;2.43;1.50;;;;;;;;;;5043728;28;20418;-52
2020/12/22 08:46:30;;;;;;;2.70;1.50;;;;;;;;;;5052378;28;20503;-51
2020/12/22 08:48:56;;;;;;;2.03;1.60;;;;;;;;;;5048118;28;20504;-53
2020/12/22 08:51:26;;;;;;;5.03;1.43;;;;;;;;;;5052020;28;20429;-51
2020/12/22 08:53:53;;;;;;;1.83;1.27;;;;;;;;;;5052425;28;20429;-52
2020/12/22 08:56:22;;;;;;;2.30;1.50;;;;;;;;;;5051957;28;20480;-51
2020/12/22 08:58:55;;;;;;;2.70;1.20;;;;;;;;;;5052287;28;20402;-53
2020/12/22 09:01:21;;;;;;;1.97;1.47;;;;;;;;;;5051710;28;20397;-52
2020/12/22 09:03:50;;;;;;;2.30;1.70;;;;;;;;;;5035519;28;20905;-52
2020/12/22 09:06:16;;;;;;;1.20;1.10;;;;;;;;;;5012468;28;20434;-53
2020/12/22 09:08:42;;;;;;;3.80;1.60;;;;;;;;;;5012203;28;20431;-52
2020/12/22 09:11:17;;;;;;;1.27;1.17;;;;;;;;;;5012157;28;20422;-52
2020/12/22 09:13:43;;;;;;;1.20;1.20;;;;;;;;;;5044387;28;20466;-52
2020/12/22 09:16:09;;;;;;;1.10;1.10;;;;;;;;;;5051746;28;20460;-52
2020/12/22 09:18:36;;;;;;;9.27;1.63;;;;;;;;;;5051724;28;20405;-52
2020/12/22 09:21:04;;;;;;;2.90;1.30;;;;;;;;;;5051163;28;20974;-53
2020/12/22 09:23:30;;;;;;;3.70;1.47;;;;;;;;;;5051591;28;20804;-53
2020/12/22 09:25:55;;;;;;;1.53;1.37;;;;;;;;;;5051767;28;20488;-50
2020/12/22 09:28:21;;;;;;;1.50;1.20;;;;;;;;;;5052358;28;20772;-52
2020/12/22 09:30:47;;;;;;;3.43;1.50;;;;;;;;;;5051404;28;20496;-52
2020/12/22 09:33:13;;;;;;;1.60;1.27;;;;;;;;;;5051184;28;20864;-52
2020/12/22 09:35:39;;;;;;;3.33;1.20;;;;;;;;;;5051213;28;20489;-53
2020/12/22 09:38:05;;;;;;;1.57;1.47;;;;;;;;;;5048334;28;20425;-52
2020/12/22 09:40:32;;;;;;;1.33;1.23;;;;;;;;;;5051323;28;20868;-52
2020/12/22 09:42:58;;;;;;;3.77;1.50;;;;;;;;;;5050719;28;20410;-51
2020/12/22 09:45:24;;;;;;;3.00;1.20;;;;;;;;;;5050940;28;20412;-52
2020/12/22 09:47:50;;;;;;;1.53;1.00;;;;;;;;;;5051210;28;20376;-52
2020/12/22 09:50:18;;;;;;;3.50;1.17;;;;;;;;;;5052438;28;20387;-52
2020/12/22 09:52:44;;;;;;;2.00;1.20;;;;;;;;;;5049408;28;20486;-51
2020/12/22 09:55:10;;;;;;;1.50;1.40;;;;;;;;;;5051156;28;20536;-52
2020/12/22 09:57:36;;;;;;;1.83;1.20;;;;;;;;;;5051033;28;20843;-52
2020/12/22 10:00:02;;;;;;;14.33;1.73;;;;;;;;;;5051216;28;20405;-52
2020/12/22 10:02:28;;;;;;;3.57;1.37;;;;;;;;;;5048484;28;20924;-51
2020/12/22 10:04:54;;;;;;;1.67;1.30;;;;;;;;;;5049415;28;20437;-51
2020/12/22 10:07:19;;;;;;;2.17;1.47;;;;;;;;;;5051112;28;20406;-51
2020/12/22 10:09:45;;;;;;;4.53;2.00;;;;;;;;;;5050985;28;20877;-52
2020/12/22 10:12:11;;;;;;;1.63;1.53;;;;;;;;;;5050729;28;20444;-52
2020/12/22 10:14:37;;;;;;;2.40;1.90;;;;;;;;;;5050690;28;20454;-53
2020/12/22 10:17:03;;;;;;;1.87;1.70;;;;;;;;;;5050987;28;20405;-52
2020/12/22 10:19:29;;;;;;;1.70;1.60;;;;;;;;;;5050821;28;20887;-53
2020/12/22 10:21:55;;;;;;;2.30;1.83;;;;;;;;;;5050800;28;20417;-53
2020/12/22 10:24:21;;;;;;;2.70;1.50;;;;;;;;;;5050815;28;20795;-52
2020/12/22 10:26:47;;;;;;;1.50;1.40;;;;;;;;;;5049786;28;20416;-52
2020/12/22 10:29:13;;;;;;;5.20;1.67;;;;;;;;;;5046051;28;20808;-52
2020/12/22 10:31:39;;;;;;;1.60;1.50;;;;;;;;;;5049811;28;20516;-52
2020/12/22 10:34:05;;;;;;;1.83;1.50;;;;;;;;;;5049811;28;20424;-52
2020/12/22 10:36:32;;;;;;;3.73;1.50;;;;;;;;;;5050451;28;20534;-52
2020/12/22 10:38:58;;;;;;;2.10;1.60;;;;;;;;;;5050760;28;20904;-53
2020/12/22 10:41:24;;;;;;;1.63;1.50;;;;;;;;;;5050307;28;20425;-52
2020/12/22 10:43:51;;;;;;;2.10;2.00;;;;;;;;;;5050702;28;21125;-53
2020/12/22 10:46:17;;;;;;;4.90;2.20;;;;;;;;;;5050520;28;20404;-52
2020/12/22 10:48:44;;;;;;;1.93;1.83;;;;;;;;;;5050535;28;20401;-52
2020/12/22 10:51:10;;;;;;;2.50;2.30;;;;;;;;;;5050111;28;20756;-53
2020/12/22 10:53:36;;;;;;;1.97;1.73;;;;;;;;;;5047215;28;20489;-53
2020/12/22 10:56:02;;;;;;;1.80;1.70;;;;;;;;;;5053307;28;20547;-52
2020/12/22 10:58:28;;;;;;;4.20;1.80;;;;;;;;;;5054583;28;20488;-53
2020/12/22 11:00:54;;;;;;;2.23;1.40;;;;;;;;;;5054595;28;20446;-52
2020/12/22 11:03:20;;;;;;;1.83;1.73;;;;;;;;;;5053966;28;20518;-53
2020/12/22 11:06:04;;;;;;;1.70;1.60;;;;;;;;;;5054405;28;20482;-52
2020/12/22 11:08:30;;;;;;;1.70;1.60;;;;;;;;;;5054475;28;20412;-52
2020/12/22 11:10:56;;;;;;;1.67;1.57;;;;;;;;;;5054390;28;20445;-52
2020/12/22 11:13:22;;;;;;;1.57;1.47;;;;;;;;;;5053815;28;20956;-53
2020/12/22 11:15:48;;;;;;;4.43;1.90;;;;;;;;;;5054143;28;20453;-52
2020/12/22 11:18:14;;;;;;;3.63;1.80;;;;;;;;;;5052677;28;20397;-51
2020/12/22 11:20:40;;;;;;;4.03;1.97;;;;;;;;;;5051211;28;20424;-53
2020/12/22 11:23:06;;;;;;;2.17;1.60;;;;;;;;;;5053720;28;20412;-53
2020/12/22 11:25:32;;;;;;;2.40;1.97;;;;;;;;;;5054089;28;20406;-52
2020/12/22 11:27:58;;;;;;;2.00;1.90;;;;;;;;;;5053839;28;20846;-53
2020/12/22 11:30:24;;;;;;;2.73;2.30;;;;;;;;;;5053927;28;20432;-52
2020/12/22 11:32:50;;;;;;;3.00;2.17;;;;;;;;;;5053540;28;20421;-53
2020/12/22 11:35:16;;;;;;;2.20;2.00;;;;;;;;;;5053874;28;20459;-53
2020/12/22 11:37:42;;;;;;;2.17;2.03;;;;;;;;;;5053826;28;20492;-52
2020/12/22 11:40:08;;;;;;;2.23;1.97;;;;;;;;;;5053645;28;20448;-53
2020/12/22 11:42:37;;;;;;;2.07;1.97;;;;;;;;;;5053429;28;20461;-53
2020/12/22 11:45:03;;;;;;;1.83;1.60;;;;;;;;;;5050289;28;20565;-53
2020/12/22 11:47:29;;;;;;;2.83;2.60;;;;;;;;;;5053638;28;20416;-52
2020/12/22 11:49:55;;;;;;;2.53;2.07;;;;;;;;;;5053487;28;20424;-51
2020/12/22 11:52:21;;;;;;;2.83;1.93;;;;;;;;;;5053282;28;20761;-53
2020/12/22 11:54:47;;;;;;;2.07;1.93;;;;;;;;;;5053318;28;20428;-53
2020/12/22 11:57:13;;;;;;;3.00;2.00;;;;;;;;;;5053446;28;21067;-53
2020/12/22 11:59:39;;;;;;;1.83;1.73;;;;;;;;;;5053276;28;20409;-52
2020/12/22 12:02:05;;;;;;;2.07;1.77;;;;;;;;;;5053118;28;20420;-52
2020/12/22 12:04:33;;;;;;;3.73;2.20;;;;;;;;;;5053229;28;20491;-52
2020/12/22 12:06:59;;;;;;;2.03;1.93;;;;;;;;;;5052641;28;20398;-52
2020/12/22 12:09:25;;;;;;;1.80;1.70;;;;;;;;;;5049055;28;20487;-52
2020/12/22 12:11:51;;;;;;;2.13;1.80;;;;;;;;;;5052872;28;20425;-52
2020/12/22 12:14:18;;;;;;;7.97;1.83;;;;;;;;;;5053084;28;20401;-52
2020/12/22 12:16:48;;;;;;;1.70;1.60;;;;;;;;;;5052917;28;20466;-51
2020/12/22 12:19:14;;;;;;;4.07;1.77;;;;;;;;;;5053081;28;20402;-52
2020/12/22 12:21:40;;;;;;;1.70;1.60;;;;;;;;;;5052574;28;20463;-52
2020/12/22 12:24:06;;;;;;;4.03;1.80;;;;;;;;;;5052996;28;20405;-52
2020/12/22 12:26:32;;;;;;;1.80;1.37;;;;;;;;;;5052765;28;20501;-51
2020/12/22 12:28:58;;;;;;;2.83;1.70;;;;;;;;;;5052864;28;21012;-52
2020/12/22 12:31:26;;;;;;;1.90;1.50;;;;;;;;;;5052194;28;21134;-53
2020/12/22 12:33:52;;;;;;;2.27;1.57;;;;;;;;;;5052688;28;20405;-52
2020/12/22 12:36:18;;;;;;;2.10;1.50;;;;;;;;;;5049224;28;20574;-52
2020/12/22 12:38:44;;;;;;;1.93;1.73;;;;;;;;;;5052754;28;20397;-52
2020/12/22 12:41:13;;;;;;;4.63;2.00;;;;;;;;;;5052269;28;20409;-53
2020/12/22 12:43:40;;;;;;;4.97;1.53;;;;;;;;;;5052969;28;20452;-51
2020/12/22 12:46:06;;;;;;;2.87;1.30;;;;;;;;;;5052654;28;20475;-51
2020/12/22 12:48:33;;;;;;;2.00;1.47;;;;;;;;;;5053066;28;20749;-52
2020/12/22 12:50:59;;;;;;;2.30;1.50;;;;;;;;;;5052559;28;20440;-52
2020/12/22 12:53:25;;;;;;;3.53;1.90;;;;;;;;;;5052099;28;20421;-52
2020/12/22 12:55:51;;;;;;;3.80;1.67;;;;;;;;;;5052271;28;20445;-52
2020/12/22 12:58:17;;;;;;;2.80;1.63;;;;;;;;;;5052283;28;20401;-54
2020/12/22 13:00:43;;;;;;;2.10;1.57;;;;;;;;;;5048269;28;20779;-52
2020/12/22 13:03:09;;;;;;;1.60;1.50;;;;;;;;;;5051942;28;20429;-53
2020/12/22 13:05:35;;;;;;;3.07;2.00;;;;;;;;;;5052225;28;20433;-52
2020/12/22 13:08:01;;;;;;;2.53;1.57;;;;;;;;;;5052132;28;20433;-52
2020/12/22 13:10:27;;;;;;;3.90;1.70;;;;;;;;;;5052187;28;20818;-52
2020/12/22 13:12:53;;;;;;;1.83;1.73;;;;;;;;;;5051642;28;20428;-52
2020/12/22 13:15:19;;;;;;;1.70;1.60;;;;;;;;;;5051978;28;20793;-52
2020/12/22 13:17:45;;;;;;;2.37;1.80;;;;;;;;;;5051381;28;20404;-53
2020/12/22 13:20:11;;;;;;;4.40;1.50;;;;;;;;;;5051294;28;20526;-53
2020/12/22 13:22:37;;;;;;;2.50;1.37;;;;;;;;;;5051614;28;20496;-53
2020/12/22 13:25:04;;;;;;;5.13;1.50;;;;;;;;;;5047668;28;20422;-52
2020/12/22 13:27:30;;;;;;;2.60;1.27;;;;;;;;;;5051755;28;20417;-53
2020/12/22 13:29:56;;;;;;;1.47;1.37;;;;;;;;;;5051667;28;20488;-52
2020/12/22 13:32:23;;;;;;;1.10;1.10;;;;;;;;;;5051399;28;20759;-53
2020/12/22 13:34:49;;;;;;;1.33;1.23;;;;;;;;;;5037734;28;20499;-52
2020/12/22 13:37:15;;;;;;;5.53;1.20;;;;;;;;;;5031639;28;20886;-52
2020/12/22 13:39:41;;;;;;;1.33;1.23;;;;;;;;;;5031354;28;20771;-52
2020/12/22 13:42:07;;;;;;;2.40;1.33;;;;;;;;;;5031237;28;20513;-52
2020/12/22 13:44:33;;;;;;;1.20;1.20;;;;;;;;;;5031596;28;20411;-52
2020/12/22 13:47:03;;;;;;;1.87;1.27;;;;;;;;;;5031460;28;20913;-52
2020/12/22 13:49:29;;;;;;;2.90;1.40;;;;;;;;;;5031244;28;20960;-50
2020/12/22 13:51:55;;;;;;;1.17;1.10;;;;;;;;;;5044460;28;20449;-51
2020/12/22 13:54:21;;;;;;;4.73;2.90;;;;;;;;;;5050002;28;20995;-52
2020/12/22 13:56:47;;;;;;;5.00;3.10;;;;;;;;;;5050295;28;21223;-52
2020/12/22 13:59:13;;;;;;;6.03;1.23;;;;;;;;;;5051213;28;20409;-51
2020/12/22 14:01:39;;;;;;;1.10;1.10;;;;;;;;;;5050742;28;20443;-51
2020/12/22 14:04:05;;;;;;;1.10;1.00;;;;;;;;;;5051045;28;20413;-53
2020/12/22 14:06:31;;;;;;;1.87;1.30;;;;;;;;;;5050941;28;20548;-52
2020/12/22 14:08:57;;;;;;;1.37;1.27;;;;;;;;;;5050981;28;20397;-53
2020/12/22 14:11:23;;;;;;;3.93;2.43;;;;;;;;;;5050586;28;20405;-53
2020/12/22 14:13:51;;;;;;;2.03;1.30;;;;;;;;;;5050942;28;20404;-52
2020/12/22 14:16:17;;;;;;;2.03;1.10;;;;;;;;;;5047277;28;20489;-53
2020/12/22 14:18:43;;;;;;;5.60;2.70;;;;;;;;;;5050915;28;20412;-53
2020/12/22 14:21:16;;;;;;;1.57;1.10;;;;;;;;;;5050364;28;20402;-53
2020/12/22 14:23:42;;;;;;;2.47;1.13;;;;;;;;;;5050761;28;20960;-52
2020/12/22 14:26:09;;;;;;;1.70;1.00;;;;;;;;;;5050839;28;20467;-51
2020/12/22 14:28:35;;;;;;;1.43;1.10;;;;;;;;;;5050667;28;20846;-53
2020/12/22 14:31:01;;;;;;;1.30;1.20;;;;;;;;;;5050509;28;20412;-51
2020/12/22 14:33:27;;;;;;;2.97;1.20;;;;;;;;;;5050245;28;20429;-53
2020/12/22 14:35:54;;;;;;;1.47;1.27;;;;;;;;;;5050601;28;20952;-53
2020/12/22 14:38:20;;;;;;;1.60;1.20;;;;;;;;;;5050542;28;20402;-52
2020/12/22 14:40:46;;;;;;;1.30;1.20;;;;;;;;;;5050710;28;20401;-53
2020/12/22 14:43:12;;;;;;;2.40;1.30;;;;;;;;;;5046314;28;20416;-52